Time;durP1;ratioP1;P1;durP2;ratioP2;P2;SDS_P1;SDS_P2;PMS_P1;PMS_P2;Temp;Humidity;BMP_temperature;BMP_pressure;BME280_temperature;BME280_humidity;BME280_pressure;Samples;Min_cycle;Max_cycle;Signal;HPM_P1;HPM_P2
2023/06/03 00:01:27;;;;;;;1999.90;999.90;;;12.50;99.90;;;;;;5032097;28;20052;-77
2023/06/03 00:03:54;;;;;;;1999.90;999.90;;;12.50;99.90;;;;;;5032666;28;20037;-76
2023/06/03 00:06:20;;;;;;;1999.90;999.90;;;12.40;99.90;;;;;;5014907;28;20056;-77
2023/06/03 00:08:45;;;;;;;1999.90;999.90;;;12.40;99.90;;;;;;5032074;28;20045;-77
2023/06/03 00:11:11;;;;;;;1999.90;999.90;;;12.40;99.90;;;;;;5013739;28;20045;-77
2023/06/03 00:13:40;;;;;;;1999.90;999.90;;;12.40;99.90;;;;;;5013330;28;20053;-77
2023/06/03 00:16:06;;;;;;;1999.90;999.90;;;12.30;99.90;;;;;;5028100;28;20137;-77
2023/06/03 00:18:32;;;;;;;1999.90;999.90;;;12.20;99.90;;;;;;5012900;28;20041;-77
2023/06/03 00:21:01;;;;;;;1999.90;999.90;;;12.20;99.90;;;;;;5022077;28;20095;-77
2023/06/03 00:23:27;;;;;;;1999.90;999.90;;;12.20;99.90;;;;;;5014751;28;20041;-84
2023/06/03 00:25:53;;;;;;;1999.90;999.90;;;12.20;99.90;;;;;;5013869;28;20061;-76
2023/06/03 00:28:19;;;;;;;1999.90;999.90;;;12.10;99.90;;;;;;5032365;28;20116;-77
2023/06/03 00:30:45;;;;;;;1999.90;999.90;;;12.00;99.90;;;;;;5030198;28;20052;-77
2023/06/03 00:33:11;;;;;;;1999.90;999.90;;;12.00;99.90;;;;;;5014726;28;20053;-77
2023/06/03 00:35:37;;;;;;;1999.90;999.90;;;12.00;99.90;;;;;;5031536;28;20638;-78
2023/06/03 00:38:03;;;;;;;1999.90;999.90;;;12.00;99.90;;;;;;5032418;28;20045;-76
2023/06/03 00:40:28;;;;;;;1999.90;999.90;;;11.90;99.90;;;;;;5030931;28;20041;-89
2023/06/03 00:42:54;;;;;;;1999.90;999.90;;;11.90;99.90;;;;;;5031887;28;20053;-77
2023/06/03 00:45:20;;;;;;;1999.90;999.90;;;11.80;99.90;;;;;;5014494;28;20045;-76
2023/06/03 00:47:46;;;;;;;1999.90;999.90;;;11.80;99.90;;;;;;5030240;28;20045;-77
2023/06/03 00:50:14;;;;;;;1999.90;999.90;;;11.80;99.90;;;;;;5032044;28;20048;-77
2023/06/03 00:52:40;;;;;;;1999.90;999.90;;;11.70;99.90;;;;;;5031628;28;20120;-76
2023/06/03 00:55:06;;;;;;;1999.90;999.90;;;11.70;99.90;;;;;;5033221;28;20111;-79
2023/06/03 00:57:33;;;;;;;1999.90;999.90;;;11.70;99.90;;;;;;5034195;28;20053;-79
2023/06/03 00:59:58;;;;;;;1999.90;999.90;;;11.60;99.90;;;;;;5035198;28;20069;-78
2023/06/03 01:02:24;;;;;;;1999.90;999.90;;;11.60;99.90;;;;;;5035295;28;20057;-78
2023/06/03 01:04:50;;;;;;;1999.90;999.90;;;11.60;99.90;;;;;;5016551;28;20560;-77
2023/06/03 01:07:46;;;;;;;1999.90;999.90;;;11.50;99.90;;;;;;5035736;28;20041;-76
2023/06/03 01:10:49;;;;;;;1999.90;999.90;;;11.50;99.90;;;;;;5035300;28;20041;-81
2023/06/03 01:13:18;;;;;;;1999.90;999.90;;;11.40;99.90;;;;;;5022084;28;20064;-78
2023/06/03 01:15:52;;;;;;;1999.90;999.90;;;11.40;99.90;;;;;;5033938;28;20133;-76
2023/06/03 01:18:18;;;;;;;1999.90;999.90;;;11.30;99.90;;;;;;5015848;28;20517;-77
2023/06/03 01:20:45;;;;;;;1999.90;999.90;;;11.30;99.90;;;;;;4987867;28;20053;-77
2023/06/03 01:23:28;;;;;;;1999.90;999.90;;;11.30;99.90;;;;;;5035425;28;20045;-76
2023/06/03 01:25:57;;;;;;;1999.90;999.90;;;11.20;99.90;;;;;;5016996;28;20053;-77
2023/06/03 01:28:28;;;;;;;1999.90;999.90;;;11.20;99.90;;;;;;5035667;28;20052;-77
2023/06/03 01:30:55;;;;;;;1999.90;999.90;;;11.10;99.90;;;;;;5034782;28;20053;-76
2023/06/03 01:33:22;;;;;;;1999.90;999.90;;;11.10;99.90;;;;;;5017967;28;20110;-77
2023/06/03 01:35:51;;;;;;;1999.90;999.90;;;11.10;99.90;;;;;;5034629;28;20038;-76
2023/06/03 01:38:18;;;;;;;1999.90;999.90;;;11.00;99.90;;;;;;5034148;28;20052;-77
2023/06/03 01:40:45;;;;;;;1999.90;999.90;;;11.10;99.90;;;;;;5033848;28;20041;-76
2023/06/03 01:43:11;;;;;;;1999.90;999.90;;;11.20;99.90;;;;;;5035269;28;20052;-77
2023/06/03 01:45:37;;;;;;;1999.90;999.90;;;10.90;99.90;;;;;;5016849;28;20045;-77
2023/06/03 01:48:04;;;;;;;1999.90;908.58;;;10.90;99.90;;;;;;5035012;28;20056;-77
2023/06/03 01:50:29;;;;;;;1999.90;999.90;;;10.90;99.90;;;;;;5034671;28;20572;-76
2023/06/03 01:52:55;;;;;;;1999.90;999.90;;;10.90;99.90;;;;;;5034756;28;20084;-76
2023/06/03 01:55:21;;;;;;;1999.90;999.90;;;10.80;99.90;;;;;;5032868;28;20072;-82
2023/06/03 01:57:47;;;;;;;1999.90;999.90;;;10.80;99.90;;;;;;5034110;28;20092;-77
2023/06/03 02:00:13;;;;;;;1999.90;999.90;;;10.70;99.90;;;;;;5016971;28;20057;-77
2023/06/03 02:02:39;;;;;;;1999.90;999.90;;;10.70;99.90;;;;;;5034452;28;20059;-77
2023/06/03 02:05:05;;;;;;;1999.90;999.90;;;10.70;99.90;;;;;;5034892;28;20057;-77
2023/06/03 02:07:31;;;;;;;1999.90;999.90;;;10.70;99.90;;;;;;5033687;28;20454;-77
2023/06/03 02:10:01;;;;;;;1999.90;999.90;;;10.70;99.90;;;;;;5034269;28;20512;-77
2023/06/03 02:12:26;;;;;;;1999.90;999.90;;;10.60;99.90;;;;;;5032380;28;20041;-77
2023/06/03 02:14:53;;;;;;;1999.90;999.90;;;10.60;99.90;;;;;;5016789;28;20056;-76
2023/06/03 02:17:24;;;;;;;1999.90;999.90;;;10.50;99.90;;;;;;5020295;28;20077;-76
2023/06/03 02:19:50;;;;;;;1999.90;999.90;;;10.50;99.90;;;;;;5014639;28;20049;-79
2023/06/03 02:22:17;;;;;;;1999.90;999.90;;;10.50;99.90;;;;;;5034369;28;20120;-76
2023/06/03 02:24:46;;;;;;;1999.90;999.90;;;10.50;99.90;;;;;;5034220;28;20049;-76
2023/06/03 02:27:14;;;;;;;1999.90;999.90;;;10.40;99.90;;;;;;5033410;28;20053;-76
2023/06/03 02:29:41;;;;;;;1999.90;999.90;;;10.40;99.90;;;;;;5033302;28;20069;-76
2023/06/03 02:32:08;;;;;;;1999.90;999.90;;;10.30;99.90;;;;;;5034125;28;20044;-76
2023/06/03 02:34:33;;;;;;;1999.90;999.90;;;10.30;99.90;;;;;;5034478;28;20052;-77
2023/06/03 02:36:59;;;;;;;1999.90;999.90;;;10.30;99.90;;;;;;5015601;28;20050;-76
2023/06/03 02:39:25;;;;;;;1999.90;999.90;;;10.20;99.90;;;;;;5016691;28;20072;-76
2023/06/03 02:41:51;;;;;;;1999.90;999.90;;;10.20;99.90;;;;;;5030139;28;20088;-76
2023/06/03 02:44:17;;;;;;;1999.90;999.90;;;10.20;99.90;;;;;;5034225;28;20077;-75
2023/06/03 02:46:44;;;;;;;1999.90;999.90;;;10.20;99.90;;;;;;5016266;28;20060;-86
2023/06/03 02:49:12;;;;;;;1999.90;999.90;;;10.20;99.90;;;;;;5033990;28;20103;-76
2023/06/03 02:51:37;;;;;;;1999.90;999.90;;;10.10;99.90;;;;;;5016037;28;20049;-76
2023/06/03 02:54:03;;;;;;;1999.90;999.90;;;10.10;99.90;;;;;;5033334;28;20049;-77
2023/06/03 02:56:29;;;;;;;1999.90;979.78;;;10.00;99.90;;;;;;5032874;28;20051;-76
2023/06/03 02:58:55;;;;;;;1999.90;999.90;;;10.00;99.90;;;;;;5014530;28;20058;-78
2023/06/03 03:01:22;;;;;;;1999.90;999.90;;;10.00;99.90;;;;;;4996430;28;20522;-76
2023/06/03 03:03:48;;;;;;;1999.90;999.90;;;10.00;99.90;;;;;;5013819;28;20056;-76
2023/06/03 03:06:19;;;;;;;1999.90;911.17;;;9.90;99.90;;;;;;5013724;28;20128;-77
2023/06/03 03:08:48;;;;;;;1999.90;999.90;;;9.90;99.90;;;;;;5014107;28;20157;-76
2023/06/03 03:11:14;;;;;;;1999.90;982.08;;;9.90;99.90;;;;;;5012775;28;20046;-76
2023/06/03 03:13:41;;;;;;;1999.90;999.90;;;9.90;99.90;;;;;;5016465;28;20130;-76
2023/06/03 03:16:07;;;;;;;1999.90;997.70;;;9.90;99.90;;;;;;5028424;28;20666;-76
2023/06/03 03:18:33;;;;;;;1999.90;999.90;;;9.80;99.90;;;;;;5013727;28;20038;-76
2023/06/03 03:20:59;;;;;;;1999.90;999.90;;;9.80;99.90;;;;;;5023370;28;20403;-76
2023/06/03 03:23:27;;;;;;;1999.90;999.90;;;9.80;99.90;;;;;;5033116;28;20084;-76
2023/06/03 03:25:53;;;;;;;1999.90;999.90;;;10.40;99.90;;;;;;5032038;28;20045;-76
2023/06/03 03:28:18;;;;;;;1999.90;999.90;;;9.80;99.90;;;;;;5015829;28;20060;-76
2023/06/03 03:30:46;;;;;;;1999.90;999.90;;;9.70;99.90;;;;;;5013937;28;20103;-76
2023/06/03 03:33:15;;;;;;;1999.90;999.90;;;9.70;99.90;;;;;;5032824;28;20532;-76
2023/06/03 03:35:40;;;;;;;1999.90;999.90;;;9.70;99.90;;;;;;5032995;28;20470;-76
2023/06/03 03:38:07;;;;;;;1999.90;999.90;;;9.90;99.90;;;;;;5015021;28;20096;-76
2023/06/03 03:40:36;;;;;;;1999.90;999.90;;;9.60;99.90;;;;;;5014674;28;20060;-76
2023/06/03 03:43:05;;;;;;;1999.90;999.90;;;9.60;99.90;;;;;;5032832;28;20056;-76
2023/06/03 03:45:36;;;;;;;1999.90;999.90;;;9.60;99.90;;;;;;5015109;28;20097;-76
2023/06/03 03:48:04;;;;;;;1999.90;913.70;;;9.60;99.90;;;;;;5030282;28;20052;-75
2023/06/03 03:50:36;;;;;;;1999.90;999.90;;;9.60;99.90;;;;;;5032510;28;20086;-76
2023/06/03 03:53:04;;;;;;;1999.90;947.13;;;9.60;99.90;;;;;;5032514;28;20052;-76
2023/06/03 03:55:31;;;;;;;1999.90;978.15;;;9.60;99.90;;;;;;5031266;28;20089;-76
2023/06/03 03:58:02;;;;;;;1999.90;999.90;;;9.60;99.90;;;;;;5032330;28;20064;-76
2023/06/03 04:00:28;;;;;;;1999.90;999.90;;;9.60;99.90;;;;;;5014742;28;20456;-76
2023/06/03 04:02:53;;;;;;;1999.90;733.65;;;9.60;99.90;;;;;;5031088;28;20041;-76
2023/06/03 04:05:22;;;;;;;1999.90;999.90;;;9.60;99.90;;;;;;5032435;28;20052;-76
2023/06/03 04:07:49;;;;;;;1999.90;999.90;;;9.60;99.90;;;;;;5015054;28;20175;-77
2023/06/03 04:10:15;;;;;;;1999.90;999.90;;;9.70;99.90;;;;;;5031803;28;20136;-79
2023/06/03 04:12:41;;;;;;;1999.90;860.60;;;9.60;99.90;;;;;;5032115;28;20141;-77
2023/06/03 04:15:08;;;;;;;1999.90;721.63;;;9.60;99.90;;;;;;5014589;28;20076;-77
2023/06/03 04:17:40;;;;;;;;;;;9.70;99.90;;;;;;5016356;28;20056;-76
2023/06/03 04:20:22;;;;;;;1999.90;956.25;;;9.70;99.90;;;;;;4996091;28;19921;-76
2023/06/03 04:22:51;;;;;;;1999.90;999.90;;;9.70;99.90;;;;;;5031724;28;20588;-79
2023/06/03 04:25:18;;;;;;;1999.90;999.90;;;9.70;99.90;;;;;;5031150;28;20417;-76
2023/06/03 04:27:44;;;;;;;1999.90;997.17;;;9.70;99.90;;;;;;5032122;28;20049;-76
2023/06/03 04:30:10;;;;;;;1999.90;999.90;;;9.70;99.90;;;;;;5013443;28;20509;-76
2023/06/03 04:32:36;;;;;;;1999.90;964.55;;;9.70;99.90;;;;;;5031005;28;20049;-76
2023/06/03 04:35:02;;;;;;;1999.90;774.38;;;9.70;99.90;;;;;;5013625;28;20053;-79
2023/06/03 04:37:28;;;;;;;1999.90;999.90;;;9.70;99.90;;;;;;5030520;28;20052;-77
2023/06/03 04:39:54;;;;;;;1999.90;999.90;;;9.80;99.90;;;;;;5014661;28;20045;-77
2023/06/03 04:42:21;;;;;;;1999.90;999.90;;;9.80;99.90;;;;;;5013607;28;20052;-76
2023/06/03 04:44:48;;;;;;;1999.90;999.90;;;10.00;99.90;;;;;;5032318;28;20486;-76
2023/06/03 04:47:17;;;;;;;1999.90;718.93;;;9.90;99.90;;;;;;5013900;28;20057;-76
2023/06/03 04:49:47;;;;;;;1999.90;613.42;;;9.90;99.90;;;;;;5032363;28;20529;-77
2023/06/03 04:52:13;;;;;;;1999.90;599.08;;;10.10;99.90;;;;;;5013912;28;20058;-76
2023/06/03 04:54:40;;;;;;;1999.90;803.63;;;9.90;99.90;;;;;;5032201;28;20044;-76
2023/06/03 04:57:06;;;;;;;1999.90;361.52;;;10.00;99.90;;;;;;5029478;28;20045;-77
2023/06/03 04:59:33;;;;;;;1999.90;493.13;;;10.00;99.90;;;;;;5031980;28;20128;-77
2023/06/03 05:01:59;;;;;;;1999.90;503.48;;;10.10;99.90;;;;;;5014618;28;20060;-77
2023/06/03 05:04:29;;;;;;;1999.90;999.90;;;10.10;99.90;;;;;;5031971;28;20506;-77
2023/06/03 05:07:00;;;;;;;1999.90;859.95;;;10.10;99.90;;;;;;5032063;28;20056;-76
2023/06/03 05:09:26;;;;;;;1999.90;999.90;;;10.20;99.90;;;;;;5031864;28;20057;-76
2023/06/03 05:11:52;;;;;;;1999.90;999.90;;;10.30;99.90;;;;;;5012428;28;20046;-76
2023/06/03 05:14:18;;;;;;;1999.90;746.55;;;10.30;99.90;;;;;;5031984;28;20147;-76
2023/06/03 05:16:43;;;;;;;1999.90;999.90;;;10.40;99.90;;;;;;4994312;28;20050;-78
2023/06/03 05:19:09;;;;;;;1999.90;935.70;;;10.50;99.90;;;;;;5010950;28;20098;-76
2023/06/03 05:21:35;;;;;;;1999.90;359.90;;;10.60;99.90;;;;;;5009423;28;20479;-76
2023/06/03 05:24:00;;;;;;;1999.90;662.58;;;10.60;99.90;;;;;;5014560;28;20136;-76
2023/06/03 05:26:26;;;;;;;1999.90;999.90;;;10.70;99.90;;;;;;5030517;28;20053;-77
2023/06/03 05:28:52;;;;;;;1999.90;999.90;;;10.70;99.90;;;;;;5030528;28;20049;-76
2023/06/03 05:31:18;;;;;;;1999.90;999.90;;;10.80;99.90;;;;;;5031285;28;20390;-76
2023/06/03 05:33:43;;;;;;;1999.90;999.90;;;10.90;99.90;;;;;;5014480;28;20045;-78
2023/06/03 05:36:10;;;;;;;1999.90;999.90;;;11.10;99.90;;;;;;5013310;28;20045;-76
2023/06/03 05:38:36;;;;;;;1999.90;575.50;;;11.10;99.90;;;;;;5031756;28;20049;-78
2023/06/03 05:41:03;;;;;;;1999.90;999.90;;;11.20;99.90;;;;;;5030616;28;20038;-76
2023/06/03 05:43:30;;;;;;;1999.90;666.42;;;11.20;99.90;;;;;;5034699;28;20049;-76
2023/06/03 05:45:56;;;;;;;1999.90;448.13;;;11.30;99.90;;;;;;5034875;28;20046;-82
2023/06/03 05:48:21;;;;;;;1999.90;999.90;;;11.40;99.90;;;;;;5016899;28;20055;-76
2023/06/03 05:50:50;;;;;;;1999.90;885.97;;;11.60;99.90;;;;;;5034425;28;20474;-77
2023/06/03 05:53:20;;;;;;;1999.90;841.72;;;11.60;99.90;;;;;;5034840;28;20088;-76
2023/06/03 05:55:46;;;;;;;1999.90;999.90;;;11.70;99.90;;;;;;5034021;28;20049;-77
2023/06/03 05:58:12;;;;;;;1999.90;741.72;;;11.80;99.90;;;;;;5015314;28;20124;-77
2023/06/03 06:00:38;;;;;;;1999.90;999.90;;;11.90;99.90;;;;;;5017053;28;20367;-77
2023/06/03 06:03:03;;;;;;;1999.90;999.90;;;12.00;99.90;;;;;;5014667;28;20382;-77
2023/06/03 06:05:29;;;;;;;1999.90;673.22;;;12.10;99.90;;;;;;5034284;28;20475;-77
2023/06/03 06:07:56;;;;;;;1999.90;816.53;;;12.20;99.90;;;;;;5034837;28;20049;-79
2023/06/03 06:10:21;;;;;;;1999.90;999.90;;;12.30;99.90;;;;;;5033489;28;20050;-78
2023/06/03 06:12:47;;;;;;;1999.90;634.38;;;12.40;99.90;;;;;;5034914;28;20049;-78
2023/06/03 06:15:13;;;;;;;1999.90;866.35;;;12.50;99.90;;;;;;5034665;28;20124;-77
2023/06/03 06:17:39;;;;;;;1999.90;999.90;;;12.60;99.90;;;;;;5000132;28;20045;-77
2023/06/03 06:20:06;;;;;;;1999.90;999.90;;;12.60;99.90;;;;;;5023539;28;20049;-77
2023/06/03 06:22:32;;;;;;;1999.90;999.90;;;12.70;99.90;;;;;;5016469;28;20045;-78
2023/06/03 06:24:58;;;;;;;1999.90;943.72;;;12.80;99.90;;;;;;5034311;28;20049;-78
2023/06/03 06:27:24;;;;;;;1999.90;999.90;;;12.80;99.90;;;;;;5033336;28;20189;-77
2023/06/03 06:29:52;;;;;;;1999.90;999.90;;;12.90;99.90;;;;;;5034421;28;20056;-77
2023/06/03 06:32:22;;;;;;;1999.90;999.90;;;12.90;99.90;;;;;;5032496;28;20053;-77
2023/06/03 06:34:48;;;;;;;1999.90;999.90;;;13.00;99.90;;;;;;5031591;28;20478;-77
2023/06/03 06:37:14;;;;;;;1999.90;999.90;;;13.00;99.90;;;;;;5033837;28;20128;-78
2023/06/03 06:39:47;;;;;;;1999.90;999.90;;;13.00;99.90;;;;;;5033977;28;20038;-78
2023/06/03 06:42:15;;;;;;;1999.90;999.90;;;13.00;99.90;;;;;;5015458;28;20049;-77
2023/06/03 06:44:46;;;;;;;1999.90;603.88;;;13.10;99.90;;;;;;5033961;28;20053;-77
2023/06/03 06:47:21;;;;;;;1999.90;999.90;;;13.20;99.90;;;;;;5015900;28;20083;-78
2023/06/03 06:49:47;;;;;;;1999.90;999.90;;;13.30;99.90;;;;;;5034275;28;20085;-77
2023/06/03 06:52:14;;;;;;;1999.90;999.90;;;13.50;99.90;;;;;;5031399;28;20045;-78
2023/06/03 06:54:41;;;;;;;1999.90;999.90;;;13.60;99.90;;;;;;5016704;28;20049;-78
2023/06/03 06:57:07;;;;;;;1999.90;999.90;;;13.70;99.90;;;;;;5015211;28;20845;-77
2023/06/03 06:59:33;;;;;;;1999.90;999.90;;;13.80;99.90;;;;;;5016214;28;20100;-77
2023/06/03 07:01:58;;;;;;;1999.90;999.90;;;13.90;99.90;;;;;;5033604;28;20038;-77
2023/06/03 07:04:24;;;;;;;1999.90;999.90;;;14.00;99.90;;;;;;5033557;28;20053;-77
2023/06/03 07:06:50;;;;;;;1999.90;999.90;;;14.10;99.90;;;;;;5033472;28;20053;-77
2023/06/03 07:09:16;;;;;;;1999.90;999.90;;;14.30;99.90;;;;;;5014695;28;20049;-77
2023/06/03 07:11:46;;;;;;;1999.90;999.90;;;14.50;99.90;;;;;;5014956;28;20049;-78
2023/06/03 07:14:13;;;;;;;1999.90;423.40;;;14.80;99.90;;;;;;5033530;28;20053;-78
2023/06/03 07:16:40;;;;;;;1999.90;999.90;;;15.00;99.90;;;;;;5015866;28;20045;-78
2023/06/03 07:19:06;;;;;;;;;;;15.30;99.90;;;;;;5033765;28;20108;-79
2023/06/03 07:21:33;;;;;;;1999.90;999.90;;;15.50;99.90;;;;;;5015927;28;19925;-78
2023/06/03 07:23:59;;;;;;;1999.90;999.90;;;15.80;99.90;;;;;;5014401;28;20401;-77
2023/06/03 07:26:27;;;;;;;1999.90;999.90;;;16.10;99.90;;;;;;5014525;28;20049;-78
2023/06/03 07:28:56;;;;;;;1999.90;999.90;;;16.30;99.90;;;;;;5033087;28;20491;-78
2023/06/03 07:31:22;;;;;;;1966.70;531.35;;;16.40;99.90;;;;;;5032332;28;20487;-78
2023/06/03 07:33:50;;;;;;;1999.90;564.95;;;16.60;99.90;;;;;;5033453;28;20045;-78
2023/06/03 07:36:18;;;;;;;1999.90;868.00;;;16.80;99.90;;;;;;5014702;28;20041;-78
2023/06/03 07:39:02;;;;;;;;;;;17.10;99.90;;;;;;5033611;28;20041;-78
2023/06/03 07:41:45;;;;;;;1999.90;730.25;;;17.40;99.90;;;;;;5030601;28;19929;-78
2023/06/03 07:44:18;;;;;;;1999.90;815.08;;;17.70;99.90;;;;;;5015398;28;20042;-79
2023/06/03 07:46:44;;;;;;;1999.90;999.90;;;18.00;99.90;;;;;;5031668;28;20460;-78
2023/06/03 07:49:12;;;;;;;1999.90;999.90;;;18.20;99.90;;;;;;5030541;28;20505;-78
2023/06/03 07:51:40;;;;;;;984.20;270.92;;;18.50;99.90;;;;;;5032097;28;20049;-78
2023/06/03 07:54:06;;;;;;;;;;;18.60;99.90;;;;;;5033457;28;20121;-78
2023/06/03 07:56:33;;;;;;;1999.90;999.90;;;18.80;99.90;;;;;;5014034;28;20055;-80
2023/06/03 07:59:00;;;;;;;1999.90;999.90;;;18.90;99.90;;;;;;5031772;28;20064;-78
2023/06/03 08:01:26;;;;;;;1999.90;999.90;;;19.10;99.90;;;;;;5032250;28;20049;-78
2023/06/03 08:03:52;;;;;;;1999.90;999.90;;;19.30;99.90;;;;;;4998928;28;20302;-78
2023/06/03 08:06:26;;;;;;;1999.90;868.00;;;19.30;99.90;;;;;;5031668;28;20485;-78
2023/06/03 08:08:53;;;;;;;1999.90;938.85;;;19.40;99.90;;;;;;5031378;28;20049;-78
2023/06/03 08:11:18;;;;;;;1999.90;999.90;;;19.50;99.90;;;;;;4997290;28;20056;-81
2023/06/03 08:13:44;;;;;;;1999.90;999.90;;;19.60;99.90;;;;;;5015007;28;20045;-78
2023/06/03 08:16:16;;;;;;;1999.90;999.90;;;19.90;99.90;;;;;;5032199;28;20121;-78
2023/06/03 08:18:44;;;;;;;1999.90;830.58;;;20.00;99.90;;;;;;5014796;28;20057;-78
2023/06/03 08:21:10;;;;;;;1999.90;999.90;;;20.30;99.90;;;;;;5032217;28;20046;-78
2023/06/03 08:23:36;;;;;;;1999.90;999.90;;;20.60;99.90;;;;;;5014276;28;20127;-77
2023/06/03 08:26:02;;;;;;;1632.55;777.13;;;20.80;99.90;;;;;;5012291;28;20055;-77
2023/06/03 08:28:28;;;;;;;1999.90;999.90;;;20.90;99.90;;;;;;5031762;28;20041;-78
2023/06/03 08:30:55;;;;;;;1999.90;999.90;;;21.00;99.90;;;;;;5032138;28;20541;-78
2023/06/03 08:33:21;;;;;;;1999.90;999.90;;;21.00;99.90;;;;;;5032094;28;20091;-82
2023/06/03 08:35:49;;;;;;;1999.90;999.90;;;21.00;99.90;;;;;;5014573;28;20474;-78
2023/06/03 08:38:16;;;;;;;1999.90;999.90;;;20.90;99.90;;;;;;5032219;28;20136;-77
2023/06/03 08:40:47;;;;;;;1999.90;999.90;;;20.70;99.90;;;;;;5011863;28;20179;-78
2023/06/03 08:43:14;;;;;;;1999.90;999.90;;;20.50;99.90;;;;;;5015121;28;20057;-78
2023/06/03 08:45:55;;;;;;;1999.90;999.90;;;20.20;99.90;;;;;;5031653;28;20050;-79
2023/06/03 08:48:32;;;;;;;1999.90;999.90;;;19.90;99.90;;;;;;5030813;28;20084;-78
2023/06/03 08:51:06;;;;;;;1999.90;999.90;;;19.70;99.90;;;;;;5031757;28;20481;-80
2023/06/03 08:53:49;;;;;;;1999.90;999.90;;;19.60;99.90;;;;;;5032285;28;20429;-78
2023/06/03 08:56:18;;;;;;;1999.90;999.90;;;19.50;99.90;;;;;;5031368;28;20140;-79
2023/06/03 08:58:54;;;;;;;1999.90;999.90;;;19.50;99.90;;;;;;5031317;28;20061;-78
2023/06/03 09:01:26;;;;;;;1996.68;522.50;;;19.50;99.90;;;;;;5031918;28;20088;-77
2023/06/03 09:03:53;;;;;;;1999.90;999.90;;;19.40;99.90;;;;;;5014562;28;20553;-78
2023/06/03 09:06:19;;;;;;;1999.90;575.45;;;19.40;99.90;;;;;;5030307;28;20084;-77
2023/06/03 09:08:49;;;;;;;1999.90;999.90;;;19.40;99.90;;;;;;5030374;28;20464;-82
2023/06/03 09:11:15;;;;;;;1999.90;999.90;;;19.60;99.90;;;;;;5029210;28;20132;-78
2023/06/03 09:13:42;;;;;;;1999.90;999.90;;;19.70;99.90;;;;;;5031820;28;20054;-79
2023/06/03 09:16:09;;;;;;;1999.90;999.90;;;19.80;99.90;;;;;;5028696;28;20060;-79
2023/06/03 09:18:36;;;;;;;1999.90;999.90;;;19.90;99.90;;;;;;5015851;28;20046;-78
2023/06/03 09:21:02;;;;;;;1999.90;999.90;;;19.90;99.90;;;;;;5015559;28;20429;-78
2023/06/03 09:23:28;;;;;;;1999.90;999.90;;;19.90;99.90;;;;;;5015680;28;20050;-79
2023/06/03 09:25:54;;;;;;;1668.82;630.97;;;19.70;99.90;;;;;;5014746;28;20410;-78
2023/06/03 09:28:20;;;;;;;1999.90;999.90;;;19.80;99.90;;;;;;5031800;28;20046;-78
2023/06/03 09:30:46;;;;;;;1999.90;999.90;;;19.90;99.90;;;;;;5034972;28;20430;-78
2023/06/03 09:33:12;;;;;;;1999.90;999.90;;;20.10;99.90;;;;;;5035700;28;20176;-78
2023/06/03 09:35:37;;;;;;;1999.90;999.90;;;20.40;99.90;;;;;;5017488;28;20136;-78
2023/06/03 09:38:06;;;;;;;1999.90;999.90;;;20.70;99.90;;;;;;5018244;28;20135;-78
2023/06/03 09:40:33;;;;;;;1999.90;999.90;;;21.00;99.90;;;;;;5017272;28;20453;-79
2023/06/03 09:42:59;;;;;;;1999.90;999.90;;;21.20;99.90;;;;;;5017916;28;20057;-76
2023/06/03 09:45:28;;;;;;;1999.90;999.90;;;21.60;99.90;;;;;;5034069;28;20128;-77
2023/06/03 09:47:54;;;;;;;1999.90;999.90;;;22.00;99.90;;;;;;5035139;28;20532;-77
2023/06/03 09:50:21;;;;;;;1999.90;999.90;;;22.10;99.90;;;;;;5034956;28;20085;-77
2023/06/03 09:52:47;;;;;;;1999.90;999.90;;;22.40;99.90;;;;;;5034876;28;20107;-78
2023/06/03 09:55:14;;;;;;;1999.90;999.90;;;22.60;99.90;;;;;;5017247;28;20398;-79
2023/06/03 09:57:41;;;;;;;1999.90;999.90;;;22.70;99.90;;;;;;5034211;28;20083;-77
2023/06/03 10:00:11;;;;;;;1999.90;999.90;;;22.90;99.90;;;;;;5033438;28;20057;-77
2023/06/03 10:02:42;;;;;;;1999.90;999.90;;;23.40;99.90;;;;;;5034467;28;20049;-78
2023/06/03 10:05:28;;;;;;;1999.90;999.90;;;23.50;99.90;;;;;;5034664;28;20512;-78
2023/06/03 10:07:55;;;;;;;1999.90;999.90;;;23.70;99.90;;;;;;5017171;28;20045;-77
2023/06/03 10:10:21;;;;;;;1999.90;999.90;;;24.00;99.90;;;;;;5033963;28;20171;-82
2023/06/03 10:12:48;;;;;;;1999.90;999.90;;;24.30;99.90;;;;;;5031814;28;20370;-78
2023/06/03 10:15:35;;;;;;;1999.90;999.90;;;24.80;99.90;;;;;;5034638;28;20060;-78
2023/06/03 10:18:02;;;;;;;1999.90;999.90;;;24.90;99.90;;;;;;5034229;28;20058;-77
2023/06/03 10:20:38;;;;;;;1999.90;999.90;;;25.40;99.90;;;;;;5033209;28;20049;-77
2023/06/03 10:23:06;;;;;;;1999.90;999.90;;;25.70;99.90;;;;;;5034715;28;20115;-78
2023/06/03 10:25:38;;;;;;;1999.90;999.90;;;25.80;99.90;;;;;;4999649;28;20497;-78
2023/06/03 10:28:04;;;;;;;1999.90;999.90;;;25.90;99.90;;;;;;5033999;28;20049;-78
2023/06/03 10:30:30;;;;;;;1999.90;999.90;;;26.40;99.90;;;;;;5032531;28;20104;-78
2023/06/03 10:33:04;;;;;;;1999.90;999.90;;;26.80;99.90;;;;;;5032412;28;20049;-83
2023/06/03 10:35:32;;;;;;;1999.90;999.90;;;27.20;99.90;;;;;;5034102;28;20081;-77
2023/06/03 10:38:03;;;;;;;1999.90;999.90;;;27.40;99.90;;;;;;5000173;28;20054;-77
2023/06/03 10:40:29;;;;;;;1999.90;999.90;;;27.50;99.90;;;;;;5033326;28;20529;-78
2023/06/03 10:42:56;;;;;;;1999.90;999.90;;;28.00;99.90;;;;;;5033727;28;20133;-77
2023/06/03 10:45:23;;;;;;;1999.90;999.90;;;28.50;99.90;;;;;;5016526;28;20041;-77
2023/06/03 10:47:53;;;;;;;1999.90;999.90;;;28.30;99.90;;;;;;5032201;28;20045;-78
2023/06/03 10:50:40;;;;;;;1999.90;999.90;;;28.10;99.90;;;;;;5033927;28;20052;-83
2023/06/03 10:53:15;;;;;;;1999.90;999.90;;;28.50;99.90;;;;;;5034305;28;20052;-78
2023/06/03 10:55:46;;;;;;;1999.90;999.90;;;28.60;99.90;;;;;;5032478;28;20057;-77
2023/06/03 10:58:21;;;;;;;1999.90;999.90;;;29.40;99.90;;;;;;5033859;28;20056;-78
2023/06/03 11:00:56;;;;;;;1999.90;999.90;;;29.40;99.90;;;;;;5033069;28;20048;-78
2023/06/03 11:03:24;;;;;;;1999.90;999.90;;;30.20;99.90;;;;;;5032503;28;20105;-78
2023/06/03 11:05:51;;;;;;;1999.90;999.90;;;30.60;99.90;;;;;;5033209;28;20041;-78
2023/06/03 11:08:54;;;;;;;1999.90;999.90;;;30.90;99.90;;;;;;5033705;28;20124;-77
2023/06/03 11:11:42;;;;;;;1999.90;999.90;;;31.30;99.90;;;;;;4995322;28;20052;-79
2023/06/03 11:14:09;;;;;;;1999.90;999.90;;;31.60;99.90;;;;;;4980359;28;20136;-77
2023/06/03 11:17:04;;;;;;;;;;;32.00;99.90;;;;;;5021616;28;20049;-78
2023/06/03 11:19:31;;;;;;;1999.90;999.90;;;32.20;99.90;;;;;;5019662;28;19921;-78
2023/06/03 11:22:04;;;;;;;1999.90;999.90;;;32.50;99.90;;;;;;5032688;28;20493;-78
2023/06/03 11:24:42;;;;;;;1999.90;999.90;;;33.00;99.90;;;;;;5031926;28;20069;-78
2023/06/03 11:27:10;;;;;;;1999.90;999.90;;;33.20;99.90;;;;;;5032261;28;20045;-78
2023/06/03 11:29:48;;;;;;;1999.90;999.90;;;33.10;99.90;;;;;;5030237;28;20045;-78
2023/06/03 11:32:35;;;;;;;1999.90;999.90;;;33.50;99.90;;;;;;5033025;28;20175;-78
2023/06/03 11:35:04;;;;;;;1999.90;999.90;;;33.40;99.90;;;;;;5015112;28;20563;-78
2023/06/03 11:37:54;;;;;;;1999.90;999.90;;;33.60;99.90;;;;;;5033131;28;20402;-77
2023/06/03 11:40:22;;;;;;;1999.90;999.90;;;34.00;99.90;;;;;;5031432;28;20048;-81
2023/06/03 11:42:50;;;;;;;1999.90;999.90;;;34.10;99.90;;;;;;5032700;28;20052;-78
2023/06/03 11:45:24;;;;;;;1999.90;999.90;;;34.20;99.90;;;;;;5031680;28;20073;-79
2023/06/03 11:47:59;;;;;;;1999.90;999.90;;;34.50;99.90;;;;;;5015150;28;20471;-79
2023/06/03 11:50:32;;;;;;;1999.90;999.90;;;34.70;99.90;;;;;;5014505;28;20124;-78
2023/06/03 11:52:58;;;;;;;1999.90;999.90;;;34.90;99.90;;;;;;5032592;28;20045;-79
2023/06/03 11:55:30;;;;;;;1999.90;999.90;;;34.30;99.90;;;;;;5031767;28;20051;-78
2023/06/03 11:58:10;;;;;;;1999.90;999.90;;;34.00;99.90;;;;;;5032329;28;20112;-78
2023/06/03 12:00:37;;;;;;;1999.90;999.90;;;34.30;99.90;;;;;;5031412;28;20064;-78
2023/06/03 12:03:03;;;;;;;1999.90;999.90;;;34.60;99.90;;;;;;5030208;28;20099;-77
2023/06/03 12:05:29;;;;;;;1999.90;999.90;;;34.80;99.90;;;;;;5032493;28;20478;-78
2023/06/03 12:07:57;;;;;;;1999.90;999.90;;;34.70;99.90;;;;;;5032159;28;20061;-78
2023/06/03 12:10:22;;;;;;;1999.90;999.90;;;34.70;99.90;;;;;;5031476;28;20158;-82